^^
Meteo Knjazevac Station Historical Data
Daily Summary for January 6, 2021 Units:  Metric    English   Both
Daily Weekly Monthly Yearly Custom
  High: Low: Average:
Temperature: 13.1 °C 9.2 °C 10.8 °C
Dew Point: 10.1 °C 8.2 °C 9 °C
Humidity: 94% 81% 89%
Wind Speed: 8km/h 0km/h 2.4km/h
Wind Gust: 9.7km/h - -
Wind- - West
Pressure: 1020.5 hPa 1019.5 hPa -
Precipitation: 0 mm    
Historical Graphs
 
 
Tabular Data for January 6, 2021
Time Temperature Dew Point Pressure Wind Wind Speed Wind Gust Humidity Rainfall Rate (Hourly) solar Conditions
00:00 13.1 °C 10.1 °C 1020.5 hPa WNW 1.6 km/h 8 km/h 82% 0 mm 0 W/m2
00:10 13.1 °C 9.9 °C 1020.5 hPa Calm   3.2 km/h 81% 0 mm 0 W/m2
00:20 12.7 °C 9.9 °C 1020.5 hPa Calm   3.2 km/h 83% 0 mm 0 W/m2
00:30 12.5 °C 9.9 °C 1020.5 hPa WNW 1.6 km/h 3.2 km/h 84% 0 mm 0 W/m2
00:40 12.2 °C 9.6 °C 1020.5 hPa West 1.6 km/h 3.2 km/h 84% 0 mm 0 W/m2
00:50 12 °C 9.6 °C 1020.5 hPa West 1.6 km/h 3.2 km/h 85% 0 mm 0 W/m2
01:00 11.8 °C 9.3 °C 1020.5 hPa West 1.6 km/h 3.2 km/h 85% 0 mm 0 W/m2
01:10 11.7 °C 9.4 °C 1020.5 hPa West 1.6 km/h 4.8 km/h 86% 0 mm 0 W/m2
01:20 11.5 °C 9.2 °C 1020.5 hPa Calm   3.2 km/h 86% 0 mm 0 W/m2
01:30 11.4 °C 9.2 °C 1020.5 hPa Calm   3.2 km/h 86% 0 mm 0 W/m2
01:40 11.3 °C 9.3 °C 1020.5 hPa WNW 1.6 km/h 3.2 km/h 88% 0 mm 0 W/m2
01:50 11.2 °C 9.3 °C 1020.5 hPa WNW 4.8 km/h 8 km/h 88% 0 mm 0 W/m2
02:00 11.2 °C 9.3 °C 1020.5 hPa WNW 3.2 km/h 8 km/h 88% 0 mm 0 W/m2
02:10 11 °C 9.1 °C 1020.2 hPa West 3.2 km/h 8 km/h 88% 0 mm 0 W/m2
02:20 10.9 °C 9.2 °C 1020.2 hPa West 3.2 km/h 6.4 km/h 89% 0 mm 0 W/m2
02:30 10.7 °C 9 °C 1020.2 hPa West 3.2 km/h 4.8 km/h 89% 0 mm 0 W/m2
02:40 10.6 °C 8.9 °C 1020.2 hPa WNW 3.2 km/h 6.4 km/h 89% 0 mm 0 W/m2
02:50 10.6 °C 8.8 °C 1020.2 hPa WSW 3.2 km/h 4.8 km/h 89% 0 mm 0 W/m2
03:00 10.3 °C 8.7 °C 1020.2 hPa West 3.2 km/h 6.4 km/h 90% 0 mm 0 W/m2
03:10 10.3 °C 8.7 °C 1020.2 hPa WNW 3.2 km/h 4.8 km/h 90% 0 mm 0 W/m2
03:20 10.1 °C 8.7 °C 1019.9 hPa West 1.6 km/h 9.7 km/h 91% 0 mm 0 W/m2
03:30 10.2 °C 8.7 °C 1019.9 hPa West 3.2 km/h 4.8 km/h 91% 0 mm 0 W/m2
03:40 10.1 °C 8.7 °C 1019.9 hPa WNW 1.6 km/h 4.8 km/h 91% 0 mm 0 W/m2
03:50 9.9 °C 8.6 °C 1019.9 hPa WSW 8 km/h 8 km/h 91% 0 mm 0 W/m2
04:00 9.8 °C 8.4 °C 1019.9 hPa West 4.8 km/h 8 km/h 91% 0 mm 0 W/m2
04:10 9.6 °C 8.2 °C 1019.9 hPa WSW 3.2 km/h 8 km/h 91% 0 mm 0 W/m2
04:20 9.5 °C 8.4 °C 1019.5 hPa West 3.2 km/h 8 km/h 93% 0 mm 0 W/m2
04:30 9.4 °C 8.3 °C 1019.5 hPa WSW 1.6 km/h 4.8 km/h 93% 0 mm 0 W/m2
04:40 9.4 °C 8.3 °C 1019.9 hPa West 3.2 km/h 6.4 km/h 93% 0 mm 0 W/m2
04:50 9.2 °C 8.3 °C 1019.9 hPa West 1.6 km/h 8 km/h 94% 0 mm 3 W/m2
05:00 9.3 °C 8.4 °C 1019.9 hPa West 1.6 km/h 4.8 km/h 94% 0 mm 7 W/m2
Knjazevac, Serbia
Compliments of Weather Underground - 2 mb